<?xml version="1.0" encoding="UTF-8" standalone="no" ?>
<gpx xmlns="http://www.topografix.com/GPX/1/1" xmlns:xsi="http://www.w3.org/2001/XMLSchema-instance" xsi:schemaLocation="http://www.topografix.com/GPX/1/1 http://www.topografix.com/GPX/1/1/gpx.xsd" version="1.1" creator="VisuGPX - https://www.visugpx.com">
  <metadata>
    <name>Caux et Sauzens - 20/07/2014</name>
    <desc><![CDATA[Randonnée de cani-marche]]></desc>
  </metadata>
  <trk>
    <name><![CDATA[2014-07-20 11:47:42]]></name>
    <trkseg>
      <trkpt lat="43.21943" lon="2.24723">
        <ele>143.85</ele>
        <time>2014-07-20T07:41:41Z</time>
      </trkpt>
      <trkpt lat="43.21942" lon="2.24722">
        <ele>149.62</ele>
        <time>2014-07-20T07:41:56Z</time>
      </trkpt>
      <trkpt lat="43.21943" lon="2.24714">
        <ele>150.1</ele>
        <time>2014-07-20T07:42:11Z</time>
      </trkpt>
      <trkpt lat="43.21942" lon="2.24705">
        <ele>150.58</ele>
        <time>2014-07-20T07:42:27Z</time>
      </trkpt>
      <trkpt lat="43.21942" lon="2.24706">
        <ele>151.06</ele>
        <time>2014-07-20T07:42:37Z</time>
      </trkpt>
      <trkpt lat="43.21942" lon="2.24699">
        <ele>154.43</ele>
        <time>2014-07-20T07:42:48Z</time>
      </trkpt>
      <trkpt lat="43.21941" lon="2.24697">
        <ele>154.43</ele>
        <time>2014-07-20T07:42:50Z</time>
      </trkpt>
      <trkpt lat="43.21942" lon="2.247">
        <ele>153.47</ele>
        <time>2014-07-20T07:43:00Z</time>
      </trkpt>
      <trkpt lat="43.21942" lon="2.24702">
        <ele>153.47</ele>
        <time>2014-07-20T07:43:17Z</time>
      </trkpt>
      <trkpt lat="43.21943" lon="2.24705">
        <ele>152.03</ele>
        <time>2014-07-20T07:43:27Z</time>
      </trkpt>
      <trkpt lat="43.21942" lon="2.24704">
        <ele>152.99</ele>
        <time>2014-07-20T07:43:36Z</time>
      </trkpt>
      <trkpt lat="43.21943" lon="2.24702">
        <ele>151.54</ele>
        <time>2014-07-20T07:43:50Z</time>
      </trkpt>
      <trkpt lat="43.21942" lon="2.24693">
        <ele>150.58</ele>
        <time>2014-07-20T07:44:03Z</time>
      </trkpt>
      <trkpt lat="43.21945" lon="2.24685">
        <ele>152.51</ele>
        <time>2014-07-20T07:44:16Z</time>
      </trkpt>
      <trkpt lat="43.21944" lon="2.24677">
        <ele>152.51</ele>
        <time>2014-07-20T07:44:21Z</time>
      </trkpt>
      <trkpt lat="43.21943" lon="2.24669">
        <ele>152.51</ele>
        <time>2014-07-20T07:44:28Z</time>
      </trkpt>
      <trkpt lat="43.21938" lon="2.24657">
        <ele>152.03</ele>
        <time>2014-07-20T07:44:39Z</time>
      </trkpt>
      <trkpt lat="43.21937" lon="2.24652">
        <ele>152.99</ele>
        <time>2014-07-20T07:44:52Z</time>
      </trkpt>
      <trkpt lat="43.21936" lon="2.24649">
        <ele>153.47</ele>
        <time>2014-07-20T07:44:56Z</time>
      </trkpt>
      <trkpt lat="43.21934" lon="2.24648">
        <ele>153.47</ele>
        <time>2014-07-20T07:44:58Z</time>
      </trkpt>
      <trkpt lat="43.21929" lon="2.24638">
        <ele>152.51</ele>
        <time>2014-07-20T07:45:13Z</time>
      </trkpt>
      <trkpt lat="43.21929" lon="2.24638">
        <ele>152.51</ele>
        <time>2014-07-20T07:45:17Z</time>
      </trkpt>
      <trkpt lat="43.2193" lon="2.24633">
        <ele>152.03</ele>
        <time>2014-07-20T07:45:28Z</time>
      </trkpt>
      <trkpt lat="43.21937" lon="2.2462">
        <ele>149.62</ele>
        <time>2014-07-20T07:45:43Z</time>
      </trkpt>
      <trkpt lat="43.21949" lon="2.24599">
        <ele>145.3</ele>
        <time>2014-07-20T07:46:00Z</time>
      </trkpt>
      <trkpt lat="43.21963" lon="2.24571">
        <ele>143.37</ele>
        <time>2014-07-20T07:46:20Z</time>
      </trkpt>
      <trkpt lat="43.21978" lon="2.24555">
        <ele>142.41</ele>
        <time>2014-07-20T07:46:36Z</time>
      </trkpt>
      <trkpt lat="43.21979" lon="2.24554">
        <ele>141.93</ele>
        <time>2014-07-20T07:46:37Z</time>
      </trkpt>
      <trkpt lat="43.21994" lon="2.2454">
        <ele>142.41</ele>
        <time>2014-07-20T07:46:53Z</time>
      </trkpt>
      <trkpt lat="43.22005" lon="2.24522">
        <ele>140.49</ele>
        <time>2014-07-20T07:47:12Z</time>
      </trkpt>
      <trkpt lat="43.22014" lon="2.24509">
        <ele>148.66</ele>
        <time>2014-07-20T07:47:24Z</time>
      </trkpt>
      <trkpt lat="43.22015" lon="2.24501">
        <ele>147.7</ele>
        <time>2014-07-20T07:47:41Z</time>
      </trkpt>
      <trkpt lat="43.22019" lon="2.24496">
        <ele>147.7</ele>
        <time>2014-07-20T07:48:00Z</time>
      </trkpt>
      <trkpt lat="43.22023" lon="2.2448">
        <ele>147.22</ele>
        <time>2014-07-20T07:48:13Z</time>
      </trkpt>
      <trkpt lat="43.22022" lon="2.24471">
        <ele>146.26</ele>
        <time>2014-07-20T07:48:29Z</time>
      </trkpt>
      <trkpt lat="43.22019" lon="2.24457">
        <ele>146.74</ele>
        <time>2014-07-20T07:48:43Z</time>
      </trkpt>
      <trkpt lat="43.2202" lon="2.24436">
        <ele>145.3</ele>
        <time>2014-07-20T07:48:56Z</time>
      </trkpt>
      <trkpt lat="43.22018" lon="2.24415">
        <ele>142.41</ele>
        <time>2014-07-20T07:49:13Z</time>
      </trkpt>
      <trkpt lat="43.22013" lon="2.24423">
        <ele>138.57</ele>
        <time>2014-07-20T07:49:24Z</time>
      </trkpt>
      <trkpt lat="43.22007" lon="2.24431">
        <ele>134.24</ele>
        <time>2014-07-20T07:49:36Z</time>
      </trkpt>
      <trkpt lat="43.22004" lon="2.24439">
        <ele>134.24</ele>
        <time>2014-07-20T07:49:42Z</time>
      </trkpt>
      <trkpt lat="43.21994" lon="2.24456">
        <ele>130.4</ele>
        <time>2014-07-20T07:50:00Z</time>
      </trkpt>
      <trkpt lat="43.21986" lon="2.24477">
        <ele>125.11</ele>
        <time>2014-07-20T07:50:22Z</time>
      </trkpt>
      <trkpt lat="43.21973" lon="2.24501">
        <ele>138.57</ele>
        <time>2014-07-20T07:50:36Z</time>
      </trkpt>
      <trkpt lat="43.2197" lon="2.24504">
        <ele>139.53</ele>
        <time>2014-07-20T07:50:39Z</time>
      </trkpt>
      <trkpt lat="43.21963" lon="2.24524">
        <ele>146.74</ele>
        <time>2014-07-20T07:50:54Z</time>
      </trkpt>
      <trkpt lat="43.21958" lon="2.24531">
        <ele>149.62</ele>
        <time>2014-07-20T07:51:03Z</time>
      </trkpt>
      <trkpt lat="43.21949" lon="2.24534">
        <ele>150.58</ele>
        <time>2014-07-20T07:51:16Z</time>
      </trkpt>
      <trkpt lat="43.21941" lon="2.24527">
        <ele>150.58</ele>
        <time>2014-07-20T07:51:28Z</time>
      </trkpt>
      <trkpt lat="43.21931" lon="2.24522">
        <ele>151.06</ele>
        <time>2014-07-20T07:51:36Z</time>
      </trkpt>
      <trkpt lat="43.21918" lon="2.24518">
        <ele>155.39</ele>
        <time>2014-07-20T07:51:45Z</time>
      </trkpt>
      <trkpt lat="43.21916" lon="2.24518">
        <ele>155.39</ele>
        <time>2014-07-20T07:51:47Z</time>
      </trkpt>
      <trkpt lat="43.21897" lon="2.24503">
        <ele>154.43</ele>
        <time>2014-07-20T07:52:06Z</time>
      </trkpt>
      <trkpt lat="43.21893" lon="2.24502">
        <ele>155.87</ele>
        <time>2014-07-20T07:52:08Z</time>
      </trkpt>
      <trkpt lat="43.21869" lon="2.2449">
        <ele>157.31</ele>
        <time>2014-07-20T07:52:29Z</time>
      </trkpt>
      <trkpt lat="43.21845" lon="2.2448">
        <ele>159.72</ele>
        <time>2014-07-20T07:52:52Z</time>
      </trkpt>
      <trkpt lat="43.21842" lon="2.24477">
        <ele>164.04</ele>
        <time>2014-07-20T07:53:02Z</time>
      </trkpt>
      <trkpt lat="43.21834" lon="2.24481">
        <ele>163.08</ele>
        <time>2014-07-20T07:53:18Z</time>
      </trkpt>
      <trkpt lat="43.21825" lon="2.24476">
        <ele>161.16</ele>
        <time>2014-07-20T07:53:30Z</time>
      </trkpt>
      <trkpt lat="43.21813" lon="2.2447">
        <ele>152.99</ele>
        <time>2014-07-20T07:53:46Z</time>
      </trkpt>
      <trkpt lat="43.21794" lon="2.24458">
        <ele>145.3</ele>
        <time>2014-07-20T07:54:04Z</time>
      </trkpt>
      <trkpt lat="43.21768" lon="2.24456">
        <ele>137.13</ele>
        <time>2014-07-20T07:54:29Z</time>
      </trkpt>
      <trkpt lat="43.2176" lon="2.24453">
        <ele>135.68</ele>
        <time>2014-07-20T07:54:33Z</time>
      </trkpt>
      <trkpt lat="43.21732" lon="2.24427">
        <ele>142.89</ele>
        <time>2014-07-20T07:54:57Z</time>
      </trkpt>
      <trkpt lat="43.21717" lon="2.24416">
        <ele>159.72</ele>
        <time>2014-07-20T07:55:12Z</time>
      </trkpt>
      <trkpt lat="43.21694" lon="2.24403">
        <ele>161.64</ele>
        <time>2014-07-20T07:55:32Z</time>
      </trkpt>
      <trkpt lat="43.21686" lon="2.244">
        <ele>162.12</ele>
        <time>2014-07-20T07:55:46Z</time>
      </trkpt>
      <trkpt lat="43.21685" lon="2.24394">
        <ele>165</ele>
        <time>2014-07-20T07:56:10Z</time>
      </trkpt>
      <trkpt lat="43.21686" lon="2.24389">
        <ele>164.52</ele>
        <time>2014-07-20T07:56:14Z</time>
      </trkpt>
      <trkpt lat="43.2169" lon="2.24377">
        <ele>163.56</ele>
        <time>2014-07-20T07:56:24Z</time>
      </trkpt>
      <trkpt lat="43.21697" lon="2.24359">
        <ele>162.12</ele>
        <time>2014-07-20T07:56:37Z</time>
      </trkpt>
      <trkpt lat="43.21701" lon="2.24357">
        <ele>162.12</ele>
        <time>2014-07-20T07:56:40Z</time>
      </trkpt>
      <trkpt lat="43.21702" lon="2.24354">
        <ele>161.64</ele>
        <time>2014-07-20T07:56:42Z</time>
      </trkpt>
      <trkpt lat="43.21705" lon="2.24346">
        <ele>162.12</ele>
        <time>2014-07-20T07:56:49Z</time>
      </trkpt>
      <trkpt lat="43.21708" lon="2.24342">
        <ele>161.64</ele>
        <time>2014-07-20T07:56:53Z</time>
      </trkpt>
      <trkpt lat="43.2171" lon="2.24336">
        <ele>162.12</ele>
        <time>2014-07-20T07:56:57Z</time>
      </trkpt>
      <trkpt lat="43.21718" lon="2.24321">
        <ele>164.04</ele>
        <time>2014-07-20T07:57:10Z</time>
      </trkpt>
      <trkpt lat="43.21725" lon="2.24306">
        <ele>162.12</ele>
        <time>2014-07-20T07:57:27Z</time>
      </trkpt>
      <trkpt lat="43.21736" lon="2.24287">
        <ele>161.16</ele>
        <time>2014-07-20T07:57:42Z</time>
      </trkpt>
      <trkpt lat="43.21745" lon="2.24278">
        <ele>160.2</ele>
        <time>2014-07-20T07:57:55Z</time>
      </trkpt>
      <trkpt lat="43.21755" lon="2.24251">
        <ele>157.79</ele>
        <time>2014-07-20T07:58:13Z</time>
      </trkpt>
      <trkpt lat="43.21757" lon="2.24246">
        <ele>157.79</ele>
        <time>2014-07-20T07:58:16Z</time>
      </trkpt>
      <trkpt lat="43.21759" lon="2.24243">
        <ele>156.83</ele>
        <time>2014-07-20T07:58:19Z</time>
      </trkpt>
      <trkpt lat="43.21766" lon="2.24234">
        <ele>150.58</ele>
        <time>2014-07-20T07:58:31Z</time>
      </trkpt>
      <trkpt lat="43.2177" lon="2.24224">
        <ele>145.78</ele>
        <time>2014-07-20T07:58:43Z</time>
      </trkpt>
      <trkpt lat="43.21778" lon="2.24199">
        <ele>145.3</ele>
        <time>2014-07-20T07:58:59Z</time>
      </trkpt>
      <trkpt lat="43.21783" lon="2.24179">
        <ele>148.66</ele>
        <time>2014-07-20T07:59:09Z</time>
      </trkpt>
      <trkpt lat="43.21793" lon="2.24164">
        <ele>152.03</ele>
        <time>2014-07-20T07:59:22Z</time>
      </trkpt>
      <trkpt lat="43.21799" lon="2.24159">
        <ele>149.14</ele>
        <time>2014-07-20T07:59:41Z</time>
      </trkpt>
      <trkpt lat="43.21808" lon="2.24157">
        <ele>150.1</ele>
        <time>2014-07-20T07:59:52Z</time>
      </trkpt>
      <trkpt lat="43.21812" lon="2.24157">
        <ele>150.1</ele>
        <time>2014-07-20T08:00:04Z</time>
      </trkpt>
      <trkpt lat="43.21824" lon="2.24148">
        <ele>152.51</ele>
        <time>2014-07-20T08:00:21Z</time>
      </trkpt>
      <trkpt lat="43.21831" lon="2.2414">
        <ele>151.54</ele>
        <time>2014-07-20T08:00:35Z</time>
      </trkpt>
      <trkpt lat="43.21847" lon="2.24128">
        <ele>150.58</ele>
        <time>2014-07-20T08:00:51Z</time>
      </trkpt>
      <trkpt lat="43.21867" lon="2.24117">
        <ele>148.66</ele>
        <time>2014-07-20T08:01:12Z</time>
      </trkpt>
      <trkpt lat="43.2188" lon="2.24108">
        <ele>144.82</ele>
        <time>2014-07-20T08:01:28Z</time>
      </trkpt>
      <trkpt lat="43.21898" lon="2.24091">
        <ele>140.97</ele>
        <time>2014-07-20T08:01:49Z</time>
      </trkpt>
      <trkpt lat="43.2192" lon="2.24089">
        <ele>140.01</ele>
        <time>2014-07-20T08:02:05Z</time>
      </trkpt>
      <trkpt lat="43.21943" lon="2.24092">
        <ele>142.89</ele>
        <time>2014-07-20T08:02:23Z</time>
      </trkpt>
      <trkpt lat="43.21955" lon="2.2409">
        <ele>141.45</ele>
        <time>2014-07-20T08:02:43Z</time>
      </trkpt>
      <trkpt lat="43.2197" lon="2.24094">
        <ele>141.93</ele>
        <time>2014-07-20T08:03:02Z</time>
      </trkpt>
      <trkpt lat="43.21985" lon="2.24103">
        <ele>144.82</ele>
        <time>2014-07-20T08:03:21Z</time>
      </trkpt>
      <trkpt lat="43.21995" lon="2.24107">
        <ele>145.3</ele>
        <time>2014-07-20T08:03:40Z</time>
      </trkpt>
      <trkpt lat="43.22009" lon="2.24122">
        <ele>142.41</ele>
        <time>2014-07-20T08:04:01Z</time>
      </trkpt>
      <trkpt lat="43.22022" lon="2.24129">
        <ele>137.61</ele>
        <time>2014-07-20T08:04:19Z</time>
      </trkpt>
      <trkpt lat="43.22044" lon="2.24125">
        <ele>139.53</ele>
        <time>2014-07-20T08:04:38Z</time>
      </trkpt>
      <trkpt lat="43.2205" lon="2.2412">
        <ele>142.89</ele>
        <time>2014-07-20T08:04:44Z</time>
      </trkpt>
      <trkpt lat="43.22057" lon="2.2411">
        <ele>143.37</ele>
        <time>2014-07-20T08:05:00Z</time>
      </trkpt>
      <trkpt lat="43.22067" lon="2.24099">
        <ele>140.49</ele>
        <time>2014-07-20T08:05:18Z</time>
      </trkpt>
      <trkpt lat="43.22074" lon="2.24094">
        <ele>138.57</ele>
        <time>2014-07-20T08:05:33Z</time>
      </trkpt>
      <trkpt lat="43.22074" lon="2.24093">
        <ele>139.05</ele>
        <time>2014-07-20T08:05:51Z</time>
      </trkpt>
      <trkpt lat="43.22072" lon="2.24095">
        <ele>141.93</ele>
        <time>2014-07-20T08:06:07Z</time>
      </trkpt>
      <trkpt lat="43.22072" lon="2.24097">
        <ele>142.89</ele>
        <time>2014-07-20T08:06:32Z</time>
      </trkpt>
      <trkpt lat="43.22072" lon="2.24096">
        <ele>140.97</ele>
        <time>2014-07-20T08:06:47Z</time>
      </trkpt>
      <trkpt lat="43.22074" lon="2.24094">
        <ele>139.05</ele>
        <time>2014-07-20T08:07:01Z</time>
      </trkpt>
      <trkpt lat="43.22073" lon="2.24093">
        <ele>139.53</ele>
        <time>2014-07-20T08:07:18Z</time>
      </trkpt>
      <trkpt lat="43.22075" lon="2.24093">
        <ele>138.09</ele>
        <time>2014-07-20T08:07:40Z</time>
      </trkpt>
      <trkpt lat="43.22076" lon="2.24093">
        <ele>139.53</ele>
        <time>2014-07-20T08:08:06Z</time>
      </trkpt>
      <trkpt lat="43.22079" lon="2.24089">
        <ele>138.09</ele>
        <time>2014-07-20T08:08:29Z</time>
      </trkpt>
      <trkpt lat="43.22078" lon="2.24093">
        <ele>140.01</ele>
        <time>2014-07-20T08:08:51Z</time>
      </trkpt>
      <trkpt lat="43.22083" lon="2.24087">
        <ele>141.93</ele>
        <time>2014-07-20T08:09:05Z</time>
      </trkpt>
      <trkpt lat="43.22089" lon="2.24079">
        <ele>140.97</ele>
        <time>2014-07-20T08:09:12Z</time>
      </trkpt>
      <trkpt lat="43.22101" lon="2.24063">
        <ele>140.01</ele>
        <time>2014-07-20T08:09:28Z</time>
      </trkpt>
      <trkpt lat="43.22108" lon="2.24058">
        <ele>140.97</ele>
        <time>2014-07-20T08:09:37Z</time>
      </trkpt>
      <trkpt lat="43.22116" lon="2.24064">
        <ele>142.89</ele>
        <time>2014-07-20T08:09:50Z</time>
      </trkpt>
      <trkpt lat="43.2213" lon="2.24078">
        <ele>140.97</ele>
        <time>2014-07-20T08:10:07Z</time>
      </trkpt>
      <trkpt lat="43.22147" lon="2.24088">
        <ele>139.53</ele>
        <time>2014-07-20T08:10:24Z</time>
      </trkpt>
      <trkpt lat="43.22166" lon="2.24097">
        <ele>139.05</ele>
        <time>2014-07-20T08:10:43Z</time>
      </trkpt>
      <trkpt lat="43.22174" lon="2.24102">
        <ele>139.53</ele>
        <time>2014-07-20T08:10:52Z</time>
      </trkpt>
      <trkpt lat="43.22178" lon="2.24105">
        <ele>140.01</ele>
        <time>2014-07-20T08:10:56Z</time>
      </trkpt>
      <trkpt lat="43.22198" lon="2.24115">
        <ele>140.49</ele>
        <time>2014-07-20T08:11:17Z</time>
      </trkpt>
      <trkpt lat="43.22203" lon="2.24114">
        <ele>140.49</ele>
        <time>2014-07-20T08:11:21Z</time>
      </trkpt>
      <trkpt lat="43.22206" lon="2.24114">
        <ele>140.97</ele>
        <time>2014-07-20T08:11:24Z</time>
      </trkpt>
      <trkpt lat="43.22214" lon="2.24113">
        <ele>140.97</ele>
        <time>2014-07-20T08:11:31Z</time>
      </trkpt>
      <trkpt lat="43.22234" lon="2.24118">
        <ele>140.49</ele>
        <time>2014-07-20T08:11:49Z</time>
      </trkpt>
      <trkpt lat="43.22258" lon="2.24126">
        <ele>140.49</ele>
        <time>2014-07-20T08:12:09Z</time>
      </trkpt>
      <trkpt lat="43.22278" lon="2.24132">
        <ele>137.13</ele>
        <time>2014-07-20T08:12:29Z</time>
      </trkpt>
      <trkpt lat="43.22291" lon="2.24134">
        <ele>136.16</ele>
        <time>2014-07-20T08:12:45Z</time>
      </trkpt>
      <trkpt lat="43.22301" lon="2.24135">
        <ele>135.2</ele>
        <time>2014-07-20T08:12:59Z</time>
      </trkpt>
      <trkpt lat="43.22313" lon="2.24137">
        <ele>135.2</ele>
        <time>2014-07-20T08:13:14Z</time>
      </trkpt>
      <trkpt lat="43.22314" lon="2.24137">
        <ele>134.72</ele>
        <time>2014-07-20T08:13:15Z</time>
      </trkpt>
      <trkpt lat="43.22317" lon="2.24138">
        <ele>134.72</ele>
        <time>2014-07-20T08:13:17Z</time>
      </trkpt>
      <trkpt lat="43.22336" lon="2.24139">
        <ele>136.16</ele>
        <time>2014-07-20T08:13:35Z</time>
      </trkpt>
      <trkpt lat="43.22357" lon="2.24144">
        <ele>137.61</ele>
        <time>2014-07-20T08:13:57Z</time>
      </trkpt>
      <trkpt lat="43.22363" lon="2.24143">
        <ele>136.64</ele>
        <time>2014-07-20T08:14:02Z</time>
      </trkpt>
      <trkpt lat="43.22375" lon="2.24146">
        <ele>136.64</ele>
        <time>2014-07-20T08:14:15Z</time>
      </trkpt>
      <trkpt lat="43.22387" lon="2.24146">
        <ele>133.76</ele>
        <time>2014-07-20T08:14:29Z</time>
      </trkpt>
      <trkpt lat="43.224" lon="2.24145">
        <ele>130.88</ele>
        <time>2014-07-20T08:14:43Z</time>
      </trkpt>
      <trkpt lat="43.22422" lon="2.24148">
        <ele>128.47</ele>
        <time>2014-07-20T08:15:03Z</time>
      </trkpt>
      <trkpt lat="43.22445" lon="2.24151">
        <ele>128.95</ele>
        <time>2014-07-20T08:15:23Z</time>
      </trkpt>
      <trkpt lat="43.22465" lon="2.24152">
        <ele>129.43</ele>
        <time>2014-07-20T08:15:39Z</time>
      </trkpt>
      <trkpt lat="43.22486" lon="2.24153">
        <ele>130.4</ele>
        <time>2014-07-20T08:15:55Z</time>
      </trkpt>
      <trkpt lat="43.22501" lon="2.24154">
        <ele>129.43</ele>
        <time>2014-07-20T08:16:08Z</time>
      </trkpt>
      <trkpt lat="43.22528" lon="2.24155">
        <ele>128.47</ele>
        <time>2014-07-20T08:16:33Z</time>
      </trkpt>
      <trkpt lat="43.22536" lon="2.24153">
        <ele>129.92</ele>
        <time>2014-07-20T08:16:46Z</time>
      </trkpt>
      <trkpt lat="43.22546" lon="2.24152">
        <ele>130.88</ele>
        <time>2014-07-20T08:16:59Z</time>
      </trkpt>
      <trkpt lat="43.22565" lon="2.24153">
        <ele>128.95</ele>
        <time>2014-07-20T08:17:14Z</time>
      </trkpt>
      <trkpt lat="43.22583" lon="2.24153">
        <ele>128.47</ele>
        <time>2014-07-20T08:17:29Z</time>
      </trkpt>
      <trkpt lat="43.22611" lon="2.24152">
        <ele>128.95</ele>
        <time>2014-07-20T08:17:54Z</time>
      </trkpt>
      <trkpt lat="43.22621" lon="2.24152">
        <ele>128.95</ele>
        <time>2014-07-20T08:18:02Z</time>
      </trkpt>
      <trkpt lat="43.22649" lon="2.2415">
        <ele>129.92</ele>
        <time>2014-07-20T08:18:24Z</time>
      </trkpt>
      <trkpt lat="43.22658" lon="2.24149">
        <ele>129.43</ele>
        <time>2014-07-20T08:18:44Z</time>
      </trkpt>
      <trkpt lat="43.22659" lon="2.2415">
        <ele>129.92</ele>
        <time>2014-07-20T08:19:00Z</time>
      </trkpt>
      <trkpt lat="43.22662" lon="2.2415">
        <ele>130.88</ele>
        <time>2014-07-20T08:19:14Z</time>
      </trkpt>
      <trkpt lat="43.22664" lon="2.2415">
        <ele>130.4</ele>
        <time>2014-07-20T08:19:39Z</time>
      </trkpt>
      <trkpt lat="43.22662" lon="2.24164">
        <ele>130.4</ele>
        <time>2014-07-20T08:19:55Z</time>
      </trkpt>
      <trkpt lat="43.2266" lon="2.24167">
        <ele>129.92</ele>
        <time>2014-07-20T08:19:57Z</time>
      </trkpt>
      <trkpt lat="43.22656" lon="2.24178">
        <ele>130.88</ele>
        <time>2014-07-20T08:20:14Z</time>
      </trkpt>
      <trkpt lat="43.22656" lon="2.24179">
        <ele>131.36</ele>
        <time>2014-07-20T08:20:17Z</time>
      </trkpt>
      <trkpt lat="43.22655" lon="2.24185">
        <ele>131.36</ele>
        <time>2014-07-20T08:20:21Z</time>
      </trkpt>
      <trkpt lat="43.22653" lon="2.24196">
        <ele>132.32</ele>
        <time>2014-07-20T08:20:28Z</time>
      </trkpt>
      <trkpt lat="43.22649" lon="2.2421">
        <ele>130.88</ele>
        <time>2014-07-20T08:20:39Z</time>
      </trkpt>
      <trkpt lat="43.22643" lon="2.24232">
        <ele>127.99</ele>
        <time>2014-07-20T08:20:54Z</time>
      </trkpt>
      <trkpt lat="43.22643" lon="2.24237">
        <ele>126.55</ele>
        <time>2014-07-20T08:20:58Z</time>
      </trkpt>
      <trkpt lat="43.22639" lon="2.24256">
        <ele>125.11</ele>
        <time>2014-07-20T08:21:11Z</time>
      </trkpt>
      <trkpt lat="43.22638" lon="2.24267">
        <ele>125.59</ele>
        <time>2014-07-20T08:21:17Z</time>
      </trkpt>
      <trkpt lat="43.22651" lon="2.24293">
        <ele>124.15</ele>
        <time>2014-07-20T08:21:40Z</time>
      </trkpt>
      <trkpt lat="43.22653" lon="2.24295">
        <ele>124.15</ele>
        <time>2014-07-20T08:21:42Z</time>
      </trkpt>
      <trkpt lat="43.22654" lon="2.24299">
        <ele>124.63</ele>
        <time>2014-07-20T08:21:45Z</time>
      </trkpt>
      <trkpt lat="43.22657" lon="2.24304">
        <ele>124.63</ele>
        <time>2014-07-20T08:21:49Z</time>
      </trkpt>
      <trkpt lat="43.22667" lon="2.2432">
        <ele>126.55</ele>
        <time>2014-07-20T08:22:03Z</time>
      </trkpt>
      <trkpt lat="43.22668" lon="2.24321">
        <ele>126.07</ele>
        <time>2014-07-20T08:22:04Z</time>
      </trkpt>
      <trkpt lat="43.22665" lon="2.24324">
        <ele>127.51</ele>
        <time>2014-07-20T08:22:19Z</time>
      </trkpt>
      <trkpt lat="43.22667" lon="2.24325">
        <ele>129.92</ele>
        <time>2014-07-20T08:22:37Z</time>
      </trkpt>
      <trkpt lat="43.22673" lon="2.24335">
        <ele>129.92</ele>
        <time>2014-07-20T08:22:49Z</time>
      </trkpt>
      <trkpt lat="43.22678" lon="2.24339">
        <ele>129.92</ele>
        <time>2014-07-20T08:22:54Z</time>
      </trkpt>
      <trkpt lat="43.22678" lon="2.24343">
        <ele>130.4</ele>
        <time>2014-07-20T08:22:57Z</time>
      </trkpt>
      <trkpt lat="43.2268" lon="2.24347">
        <ele>130.88</ele>
        <time>2014-07-20T08:23:00Z</time>
      </trkpt>
      <trkpt lat="43.22684" lon="2.24359">
        <ele>130.4</ele>
        <time>2014-07-20T08:23:12Z</time>
      </trkpt>
      <trkpt lat="43.22684" lon="2.24364">
        <ele>129.92</ele>
        <time>2014-07-20T08:23:17Z</time>
      </trkpt>
      <trkpt lat="43.22684" lon="2.24367">
        <ele>129.92</ele>
        <time>2014-07-20T08:23:19Z</time>
      </trkpt>
      <trkpt lat="43.22684" lon="2.24378">
        <ele>129.92</ele>
        <time>2014-07-20T08:23:27Z</time>
      </trkpt>
      <trkpt lat="43.22683" lon="2.24384">
        <ele>129.92</ele>
        <time>2014-07-20T08:23:31Z</time>
      </trkpt>
      <trkpt lat="43.22682" lon="2.24407">
        <ele>130.4</ele>
        <time>2014-07-20T08:23:47Z</time>
      </trkpt>
      <trkpt lat="43.22679" lon="2.24428">
        <ele>130.4</ele>
        <time>2014-07-20T08:24:01Z</time>
      </trkpt>
      <trkpt lat="43.22678" lon="2.24448">
        <ele>130.88</ele>
        <time>2014-07-20T08:24:16Z</time>
      </trkpt>
      <trkpt lat="43.22677" lon="2.2445">
        <ele>130.88</ele>
        <time>2014-07-20T08:24:17Z</time>
      </trkpt>
      <trkpt lat="43.22683" lon="2.2446">
        <ele>130.4</ele>
        <time>2014-07-20T08:24:29Z</time>
      </trkpt>
      <trkpt lat="43.22687" lon="2.24461">
        <ele>130.4</ele>
        <time>2014-07-20T08:24:33Z</time>
      </trkpt>
      <trkpt lat="43.22702" lon="2.24456">
        <ele>131.36</ele>
        <time>2014-07-20T08:24:47Z</time>
      </trkpt>
      <trkpt lat="43.2272" lon="2.24448">
        <ele>132.32</ele>
        <time>2014-07-20T08:25:05Z</time>
      </trkpt>
      <trkpt lat="43.22731" lon="2.24439">
        <ele>132.8</ele>
        <time>2014-07-20T08:25:17Z</time>
      </trkpt>
      <trkpt lat="43.22745" lon="2.2443">
        <ele>131.84</ele>
        <time>2014-07-20T08:25:30Z</time>
      </trkpt>
      <trkpt lat="43.22762" lon="2.24429">
        <ele>133.76</ele>
        <time>2014-07-20T08:25:45Z</time>
      </trkpt>
      <trkpt lat="43.2278" lon="2.24432">
        <ele>133.76</ele>
        <time>2014-07-20T08:26:02Z</time>
      </trkpt>
      <trkpt lat="43.22796" lon="2.24445">
        <ele>133.76</ele>
        <time>2014-07-20T08:26:19Z</time>
      </trkpt>
      <trkpt lat="43.22811" lon="2.24463">
        <ele>132.32</ele>
        <time>2014-07-20T08:26:36Z</time>
      </trkpt>
      <trkpt lat="43.22822" lon="2.24476">
        <ele>130.88</ele>
        <time>2014-07-20T08:26:49Z</time>
      </trkpt>
      <trkpt lat="43.22839" lon="2.24458">
        <ele>128.95</ele>
        <time>2014-07-20T08:27:08Z</time>
      </trkpt>
      <trkpt lat="43.22855" lon="2.24432">
        <ele>128.47</ele>
        <time>2014-07-20T08:27:31Z</time>
      </trkpt>
      <trkpt lat="43.22867" lon="2.24415">
        <ele>127.99</ele>
        <time>2014-07-20T08:27:46Z</time>
      </trkpt>
      <trkpt lat="43.2288" lon="2.24394">
        <ele>128.47</ele>
        <time>2014-07-20T08:28:05Z</time>
      </trkpt>
      <trkpt lat="43.22886" lon="2.24368">
        <ele>131.84</ele>
        <time>2014-07-20T08:28:24Z</time>
      </trkpt>
      <trkpt lat="43.22896" lon="2.24363">
        <ele>130.4</ele>
        <time>2014-07-20T08:28:40Z</time>
      </trkpt>
      <trkpt lat="43.229" lon="2.24378">
        <ele>128.95</ele>
        <time>2014-07-20T08:28:56Z</time>
      </trkpt>
      <trkpt lat="43.22904" lon="2.24378">
        <ele>128.47</ele>
        <time>2014-07-20T08:29:20Z</time>
      </trkpt>
      <trkpt lat="43.22906" lon="2.24373">
        <ele>127.99</ele>
        <time>2014-07-20T08:29:42Z</time>
      </trkpt>
      <trkpt lat="43.22906" lon="2.2437">
        <ele>127.03</ele>
        <time>2014-07-20T08:29:55Z</time>
      </trkpt>
      <trkpt lat="43.22907" lon="2.24371">
        <ele>125.59</ele>
        <time>2014-07-20T08:30:07Z</time>
      </trkpt>
      <trkpt lat="43.22902" lon="2.24379">
        <ele>125.59</ele>
        <time>2014-07-20T08:30:19Z</time>
      </trkpt>
      <trkpt lat="43.22897" lon="2.24392">
        <ele>124.15</ele>
        <time>2014-07-20T08:30:33Z</time>
      </trkpt>
      <trkpt lat="43.22893" lon="2.24408">
        <ele>120.78</ele>
        <time>2014-07-20T08:30:48Z</time>
      </trkpt>
      <trkpt lat="43.2289" lon="2.24428">
        <ele>115.5</ele>
        <time>2014-07-20T08:31:04Z</time>
      </trkpt>
      <trkpt lat="43.22889" lon="2.24441">
        <ele>115.98</ele>
        <time>2014-07-20T08:31:10Z</time>
      </trkpt>
      <trkpt lat="43.22886" lon="2.24458">
        <ele>118.86</ele>
        <time>2014-07-20T08:31:19Z</time>
      </trkpt>
      <trkpt lat="43.22882" lon="2.24483">
        <ele>123.67</ele>
        <time>2014-07-20T08:31:36Z</time>
      </trkpt>
      <trkpt lat="43.2288" lon="2.24496">
        <ele>124.63</ele>
        <time>2014-07-20T08:31:48Z</time>
      </trkpt>
      <trkpt lat="43.22886" lon="2.24508">
        <ele>124.15</ele>
        <time>2014-07-20T08:32:01Z</time>
      </trkpt>
      <trkpt lat="43.22892" lon="2.24526">
        <ele>122.71</ele>
        <time>2014-07-20T08:32:16Z</time>
      </trkpt>
      <trkpt lat="43.22899" lon="2.24543">
        <ele>121.74</ele>
        <time>2014-07-20T08:32:32Z</time>
      </trkpt>
      <trkpt lat="43.22912" lon="2.24564">
        <ele>119.82</ele>
        <time>2014-07-20T08:32:50Z</time>
      </trkpt>
      <trkpt lat="43.22917" lon="2.2457">
        <ele>118.86</ele>
        <time>2014-07-20T08:32:54Z</time>
      </trkpt>
      <trkpt lat="43.22925" lon="2.24578">
        <ele>118.86</ele>
        <time>2014-07-20T08:33:06Z</time>
      </trkpt>
      <trkpt lat="43.22929" lon="2.24575">
        <ele>122.22</ele>
        <time>2014-07-20T08:33:24Z</time>
      </trkpt>
      <trkpt lat="43.22931" lon="2.24574">
        <ele>124.15</ele>
        <time>2014-07-20T08:33:42Z</time>
      </trkpt>
      <trkpt lat="43.22933" lon="2.24575">
        <ele>123.67</ele>
        <time>2014-07-20T08:33:55Z</time>
      </trkpt>
      <trkpt lat="43.22928" lon="2.24573">
        <ele>126.55</ele>
        <time>2014-07-20T08:34:17Z</time>
      </trkpt>
      <trkpt lat="43.22926" lon="2.24573">
        <ele>126.55</ele>
        <time>2014-07-20T08:34:39Z</time>
      </trkpt>
      <trkpt lat="43.22928" lon="2.24573">
        <ele>126.55</ele>
        <time>2014-07-20T08:35:02Z</time>
      </trkpt>
      <trkpt lat="43.22927" lon="2.24572">
        <ele>127.51</ele>
        <time>2014-07-20T08:35:24Z</time>
      </trkpt>
      <trkpt lat="43.22928" lon="2.24575">
        <ele>128.47</ele>
        <time>2014-07-20T08:35:44Z</time>
      </trkpt>
      <trkpt lat="43.2293" lon="2.24575">
        <ele>134.24</ele>
        <time>2014-07-20T08:36:12Z</time>
      </trkpt>
      <trkpt lat="43.22927" lon="2.24572">
        <ele>129.92</ele>
        <time>2014-07-20T08:36:30Z</time>
      </trkpt>
      <trkpt lat="43.22929" lon="2.24571">
        <ele>128.95</ele>
        <time>2014-07-20T08:36:57Z</time>
      </trkpt>
      <trkpt lat="43.22931" lon="2.24565">
        <ele>132.32</ele>
        <time>2014-07-20T08:37:16Z</time>
      </trkpt>
      <trkpt lat="43.22928" lon="2.24568">
        <ele>133.76</ele>
        <time>2014-07-20T08:37:34Z</time>
      </trkpt>
      <trkpt lat="43.22928" lon="2.2457">
        <ele>135.68</ele>
        <time>2014-07-20T08:37:47Z</time>
      </trkpt>
      <trkpt lat="43.22925" lon="2.24581">
        <ele>132.8</ele>
        <time>2014-07-20T08:37:59Z</time>
      </trkpt>
      <trkpt lat="43.22925" lon="2.24581">
        <ele>134.24</ele>
        <time>2014-07-20T08:38:15Z</time>
      </trkpt>
      <trkpt lat="43.2293" lon="2.24579">
        <ele>133.76</ele>
        <time>2014-07-20T08:38:43Z</time>
      </trkpt>
      <trkpt lat="43.22924" lon="2.24582">
        <ele>130.88</ele>
        <time>2014-07-20T08:39:09Z</time>
      </trkpt>
      <trkpt lat="43.22925" lon="2.24583">
        <ele>128.47</ele>
        <time>2014-07-20T08:39:22Z</time>
      </trkpt>
      <trkpt lat="43.22936" lon="2.24589">
        <ele>127.99</ele>
        <time>2014-07-20T08:39:38Z</time>
      </trkpt>
      <trkpt lat="43.22943" lon="2.24592">
        <ele>127.51</ele>
        <time>2014-07-20T08:39:46Z</time>
      </trkpt>
      <trkpt lat="43.2296" lon="2.24598">
        <ele>128.95</ele>
        <time>2014-07-20T08:40:03Z</time>
      </trkpt>
      <trkpt lat="43.22971" lon="2.24601">
        <ele>125.59</ele>
        <time>2014-07-20T08:40:19Z</time>
      </trkpt>
      <trkpt lat="43.22984" lon="2.246">
        <ele>122.22</ele>
        <time>2014-07-20T08:40:35Z</time>
      </trkpt>
      <trkpt lat="43.22986" lon="2.24598">
        <ele>122.22</ele>
        <time>2014-07-20T08:40:37Z</time>
      </trkpt>
      <trkpt lat="43.22989" lon="2.24596">
        <ele>121.74</ele>
        <time>2014-07-20T08:40:39Z</time>
      </trkpt>
      <trkpt lat="43.22998" lon="2.24591">
        <ele>118.38</ele>
        <time>2014-07-20T08:40:51Z</time>
      </trkpt>
      <trkpt lat="43.23012" lon="2.24585">
        <ele>116.46</ele>
        <time>2014-07-20T08:41:05Z</time>
      </trkpt>
      <trkpt lat="43.23024" lon="2.24576">
        <ele>113.57</ele>
        <time>2014-07-20T08:41:21Z</time>
      </trkpt>
      <trkpt lat="43.23026" lon="2.24573">
        <ele>114.05</ele>
        <time>2014-07-20T08:41:25Z</time>
      </trkpt>
      <trkpt lat="43.23029" lon="2.24569">
        <ele>115.01</ele>
        <time>2014-07-20T08:41:29Z</time>
      </trkpt>
      <trkpt lat="43.23043" lon="2.24559">
        <ele>121.26</ele>
        <time>2014-07-20T08:41:42Z</time>
      </trkpt>
      <trkpt lat="43.23056" lon="2.2455">
        <ele>121.74</ele>
        <time>2014-07-20T08:41:59Z</time>
      </trkpt>
      <trkpt lat="43.23067" lon="2.24543">
        <ele>118.86</ele>
        <time>2014-07-20T08:42:16Z</time>
      </trkpt>
      <trkpt lat="43.23086" lon="2.24532">
        <ele>116.94</ele>
        <time>2014-07-20T08:42:37Z</time>
      </trkpt>
      <trkpt lat="43.23104" lon="2.24519">
        <ele>118.38</ele>
        <time>2014-07-20T08:42:56Z</time>
      </trkpt>
      <trkpt lat="43.23126" lon="2.24503">
        <ele>123.19</ele>
        <time>2014-07-20T08:43:12Z</time>
      </trkpt>
      <trkpt lat="43.23139" lon="2.24496">
        <ele>124.63</ele>
        <time>2014-07-20T08:43:27Z</time>
      </trkpt>
      <trkpt lat="43.23157" lon="2.24485">
        <ele>124.63</ele>
        <time>2014-07-20T08:43:44Z</time>
      </trkpt>
      <trkpt lat="43.23176" lon="2.2448">
        <ele>121.26</ele>
        <time>2014-07-20T08:43:59Z</time>
      </trkpt>
      <trkpt lat="43.23194" lon="2.24475">
        <ele>117.9</ele>
        <time>2014-07-20T08:44:23Z</time>
      </trkpt>
      <trkpt lat="43.23218" lon="2.24469">
        <ele>115.98</ele>
        <time>2014-07-20T08:44:45Z</time>
      </trkpt>
      <trkpt lat="43.2322" lon="2.24469">
        <ele>115.5</ele>
        <time>2014-07-20T08:44:47Z</time>
      </trkpt>
      <trkpt lat="43.23251" lon="2.2446">
        <ele>113.09</ele>
        <time>2014-07-20T08:45:10Z</time>
      </trkpt>
      <trkpt lat="43.2328" lon="2.24453">
        <ele>110.69</ele>
        <time>2014-07-20T08:45:34Z</time>
      </trkpt>
      <trkpt lat="43.23309" lon="2.24444">
        <ele>113.57</ele>
        <time>2014-07-20T08:45:58Z</time>
      </trkpt>
      <trkpt lat="43.2333" lon="2.24436">
        <ele>115.01</ele>
        <time>2014-07-20T08:46:19Z</time>
      </trkpt>
      <trkpt lat="43.23349" lon="2.24428">
        <ele>123.19</ele>
        <time>2014-07-20T08:46:34Z</time>
      </trkpt>
      <trkpt lat="43.23355" lon="2.24427">
        <ele>120.78</ele>
        <time>2014-07-20T08:46:50Z</time>
      </trkpt>
      <trkpt lat="43.23359" lon="2.24427">
        <ele>115.98</ele>
        <time>2014-07-20T08:47:16Z</time>
      </trkpt>
      <trkpt lat="43.23362" lon="2.24426">
        <ele>118.38</ele>
        <time>2014-07-20T08:47:43Z</time>
      </trkpt>
      <trkpt lat="43.23368" lon="2.24426">
        <ele>122.22</ele>
        <time>2014-07-20T08:47:57Z</time>
      </trkpt>
      <trkpt lat="43.23381" lon="2.24432">
        <ele>123.67</ele>
        <time>2014-07-20T08:48:10Z</time>
      </trkpt>
      <trkpt lat="43.2339" lon="2.24438">
        <ele>118.86</ele>
        <time>2014-07-20T08:48:25Z</time>
      </trkpt>
      <trkpt lat="43.23405" lon="2.24459">
        <ele>113.09</ele>
        <time>2014-07-20T08:48:45Z</time>
      </trkpt>
      <trkpt lat="43.23425" lon="2.24477">
        <ele>114.53</ele>
        <time>2014-07-20T08:49:01Z</time>
      </trkpt>
      <trkpt lat="43.23426" lon="2.24485">
        <ele>116.94</ele>
        <time>2014-07-20T08:49:04Z</time>
      </trkpt>
      <trkpt lat="43.23428" lon="2.24491">
        <ele>119.82</ele>
        <time>2014-07-20T08:49:13Z</time>
      </trkpt>
      <trkpt lat="43.23435" lon="2.24507">
        <ele>120.78</ele>
        <time>2014-07-20T08:49:28Z</time>
      </trkpt>
      <trkpt lat="43.23444" lon="2.24527">
        <ele>121.74</ele>
        <time>2014-07-20T08:49:43Z</time>
      </trkpt>
      <trkpt lat="43.23445" lon="2.24536">
        <ele>122.71</ele>
        <time>2014-07-20T08:49:54Z</time>
      </trkpt>
      <trkpt lat="43.23452" lon="2.24544">
        <ele>121.26</ele>
        <time>2014-07-20T08:50:13Z</time>
      </trkpt>
      <trkpt lat="43.23453" lon="2.24544">
        <ele>121.26</ele>
        <time>2014-07-20T08:50:14Z</time>
      </trkpt>
      <trkpt lat="43.23461" lon="2.24556">
        <ele>118.86</ele>
        <time>2014-07-20T08:50:27Z</time>
      </trkpt>
      <trkpt lat="43.23464" lon="2.24561">
        <ele>118.86</ele>
        <time>2014-07-20T08:50:41Z</time>
      </trkpt>
      <trkpt lat="43.23467" lon="2.24562">
        <ele>118.86</ele>
        <time>2014-07-20T08:50:50Z</time>
      </trkpt>
      <trkpt lat="43.23472" lon="2.2457">
        <ele>120.78</ele>
        <time>2014-07-20T08:50:59Z</time>
      </trkpt>
      <trkpt lat="43.23477" lon="2.24575">
        <ele>121.26</ele>
        <time>2014-07-20T08:51:04Z</time>
      </trkpt>
      <trkpt lat="43.23476" lon="2.24585">
        <ele>116.46</ele>
        <time>2014-07-20T08:51:14Z</time>
      </trkpt>
      <trkpt lat="43.23477" lon="2.246">
        <ele>112.61</ele>
        <time>2014-07-20T08:51:27Z</time>
      </trkpt>
      <trkpt lat="43.23479" lon="2.24613">
        <ele>111.65</ele>
        <time>2014-07-20T08:51:41Z</time>
      </trkpt>
      <trkpt lat="43.23483" lon="2.24629">
        <ele>115.98</ele>
        <time>2014-07-20T08:51:53Z</time>
      </trkpt>
      <trkpt lat="43.23486" lon="2.24636">
        <ele>119.34</ele>
        <time>2014-07-20T08:52:10Z</time>
      </trkpt>
      <trkpt lat="43.23485" lon="2.24639">
        <ele>119.82</ele>
        <time>2014-07-20T08:52:20Z</time>
      </trkpt>
      <trkpt lat="43.23485" lon="2.24643">
        <ele>120.3</ele>
        <time>2014-07-20T08:52:23Z</time>
      </trkpt>
      <trkpt lat="43.23485" lon="2.24656">
        <ele>123.19</ele>
        <time>2014-07-20T08:52:36Z</time>
      </trkpt>
      <trkpt lat="43.2349" lon="2.24676">
        <ele>123.19</ele>
        <time>2014-07-20T08:52:54Z</time>
      </trkpt>
      <trkpt lat="43.23494" lon="2.24696">
        <ele>123.19</ele>
        <time>2014-07-20T08:53:09Z</time>
      </trkpt>
      <trkpt lat="43.23497" lon="2.24712">
        <ele>123.67</ele>
        <time>2014-07-20T08:53:22Z</time>
      </trkpt>
      <trkpt lat="43.235" lon="2.24733">
        <ele>124.63</ele>
        <time>2014-07-20T08:53:39Z</time>
      </trkpt>
      <trkpt lat="43.23504" lon="2.24755">
        <ele>126.55</ele>
        <time>2014-07-20T08:53:53Z</time>
      </trkpt>
      <trkpt lat="43.23508" lon="2.24778">
        <ele>126.07</ele>
        <time>2014-07-20T08:54:09Z</time>
      </trkpt>
      <trkpt lat="43.2351" lon="2.24802">
        <ele>126.07</ele>
        <time>2014-07-20T08:54:23Z</time>
      </trkpt>
      <trkpt lat="43.23512" lon="2.24827">
        <ele>125.59</ele>
        <time>2014-07-20T08:54:39Z</time>
      </trkpt>
      <trkpt lat="43.23517" lon="2.24851">
        <ele>123.67</ele>
        <time>2014-07-20T08:54:57Z</time>
      </trkpt>
      <trkpt lat="43.23518" lon="2.24863">
        <ele>123.19</ele>
        <time>2014-07-20T08:55:07Z</time>
      </trkpt>
      <trkpt lat="43.2352" lon="2.24877">
        <ele>123.19</ele>
        <time>2014-07-20T08:55:19Z</time>
      </trkpt>
      <trkpt lat="43.23523" lon="2.24894">
        <ele>119.82</ele>
        <time>2014-07-20T08:55:32Z</time>
      </trkpt>
      <trkpt lat="43.23524" lon="2.2492">
        <ele>117.42</ele>
        <time>2014-07-20T08:55:51Z</time>
      </trkpt>
      <trkpt lat="43.23525" lon="2.24939">
        <ele>116.94</ele>
        <time>2014-07-20T08:56:02Z</time>
      </trkpt>
      <trkpt lat="43.23525" lon="2.24963">
        <ele>116.94</ele>
        <time>2014-07-20T08:56:18Z</time>
      </trkpt>
      <trkpt lat="43.23524" lon="2.24979">
        <ele>117.9</ele>
        <time>2014-07-20T08:56:30Z</time>
      </trkpt>
      <trkpt lat="43.23521" lon="2.25005">
        <ele>119.82</ele>
        <time>2014-07-20T08:56:47Z</time>
      </trkpt>
      <trkpt lat="43.23518" lon="2.25028">
        <ele>121.26</ele>
        <time>2014-07-20T08:57:03Z</time>
      </trkpt>
      <trkpt lat="43.23517" lon="2.25039">
        <ele>120.78</ele>
        <time>2014-07-20T08:57:15Z</time>
      </trkpt>
      <trkpt lat="43.23516" lon="2.25052">
        <ele>120.3</ele>
        <time>2014-07-20T08:57:31Z</time>
      </trkpt>
      <trkpt lat="43.23514" lon="2.25063">
        <ele>119.82</ele>
        <time>2014-07-20T08:57:51Z</time>
      </trkpt>
      <trkpt lat="43.23516" lon="2.25063">
        <ele>122.71</ele>
        <time>2014-07-20T08:58:14Z</time>
      </trkpt>
      <trkpt lat="43.23516" lon="2.25062">
        <ele>123.67</ele>
        <time>2014-07-20T08:58:37Z</time>
      </trkpt>
      <trkpt lat="43.23513" lon="2.25063">
        <ele>122.71</ele>
        <time>2014-07-20T08:58:58Z</time>
      </trkpt>
      <trkpt lat="43.23513" lon="2.25061">
        <ele>121.74</ele>
        <time>2014-07-20T08:59:15Z</time>
      </trkpt>
      <trkpt lat="43.23516" lon="2.25063">
        <ele>121.26</ele>
        <time>2014-07-20T08:59:32Z</time>
      </trkpt>
      <trkpt lat="43.23517" lon="2.25063">
        <ele>122.22</ele>
        <time>2014-07-20T08:59:55Z</time>
      </trkpt>
      <trkpt lat="43.23517" lon="2.25067">
        <ele>123.19</ele>
        <time>2014-07-20T09:00:21Z</time>
      </trkpt>
      <trkpt lat="43.23513" lon="2.25072">
        <ele>125.59</ele>
        <time>2014-07-20T09:00:42Z</time>
      </trkpt>
      <trkpt lat="43.23513" lon="2.25067">
        <ele>126.55</ele>
        <time>2014-07-20T09:01:06Z</time>
      </trkpt>
      <trkpt lat="43.23512" lon="2.25068">
        <ele>126.07</ele>
        <time>2014-07-20T09:01:36Z</time>
      </trkpt>
      <trkpt lat="43.23511" lon="2.25084">
        <ele>125.11</ele>
        <time>2014-07-20T09:01:53Z</time>
      </trkpt>
      <trkpt lat="43.23506" lon="2.25104">
        <ele>124.63</ele>
        <time>2014-07-20T09:02:09Z</time>
      </trkpt>
      <trkpt lat="43.23502" lon="2.25121">
        <ele>126.07</ele>
        <time>2014-07-20T09:02:24Z</time>
      </trkpt>
      <trkpt lat="43.235" lon="2.25134">
        <ele>125.59</ele>
        <time>2014-07-20T09:02:37Z</time>
      </trkpt>
      <trkpt lat="43.23499" lon="2.25147">
        <ele>124.15</ele>
        <time>2014-07-20T09:02:53Z</time>
      </trkpt>
      <trkpt lat="43.23497" lon="2.2516">
        <ele>123.67</ele>
        <time>2014-07-20T09:03:08Z</time>
      </trkpt>
      <trkpt lat="43.23495" lon="2.25179">
        <ele>123.19</ele>
        <time>2014-07-20T09:03:21Z</time>
      </trkpt>
      <trkpt lat="43.23495" lon="2.25187">
        <ele>122.71</ele>
        <time>2014-07-20T09:03:27Z</time>
      </trkpt>
      <trkpt lat="43.23496" lon="2.25207">
        <ele>121.74</ele>
        <time>2014-07-20T09:03:42Z</time>
      </trkpt>
      <trkpt lat="43.23498" lon="2.25223">
        <ele>122.22</ele>
        <time>2014-07-20T09:03:55Z</time>
      </trkpt>
      <trkpt lat="43.23499" lon="2.25226">
        <ele>122.71</ele>
        <time>2014-07-20T09:03:57Z</time>
      </trkpt>
      <trkpt lat="43.23506" lon="2.25255">
        <ele>121.74</ele>
        <time>2014-07-20T09:04:16Z</time>
      </trkpt>
      <trkpt lat="43.23514" lon="2.25273">
        <ele>121.74</ele>
        <time>2014-07-20T09:04:31Z</time>
      </trkpt>
      <trkpt lat="43.23535" lon="2.25292">
        <ele>121.74</ele>
        <time>2014-07-20T09:04:50Z</time>
      </trkpt>
      <trkpt lat="43.23547" lon="2.25303">
        <ele>123.67</ele>
        <time>2014-07-20T09:05:05Z</time>
      </trkpt>
      <trkpt lat="43.23545" lon="2.25307">
        <ele>123.19</ele>
        <time>2014-07-20T09:05:10Z</time>
      </trkpt>
      <trkpt lat="43.23534" lon="2.25311">
        <ele>122.71</ele>
        <time>2014-07-20T09:05:23Z</time>
      </trkpt>
      <trkpt lat="43.23527" lon="2.25316">
        <ele>122.71</ele>
        <time>2014-07-20T09:05:37Z</time>
      </trkpt>
      <trkpt lat="43.23527" lon="2.25315">
        <ele>121.26</ele>
        <time>2014-07-20T09:05:50Z</time>
      </trkpt>
      <trkpt lat="43.23525" lon="2.25312">
        <ele>119.82</ele>
        <time>2014-07-20T09:06:05Z</time>
      </trkpt>
      <trkpt lat="43.23514" lon="2.25316">
        <ele>119.82</ele>
        <time>2014-07-20T09:06:18Z</time>
      </trkpt>
      <trkpt lat="43.23498" lon="2.2532">
        <ele>121.74</ele>
        <time>2014-07-20T09:06:34Z</time>
      </trkpt>
      <trkpt lat="43.23482" lon="2.25325">
        <ele>122.71</ele>
        <time>2014-07-20T09:06:50Z</time>
      </trkpt>
      <trkpt lat="43.23465" lon="2.25327">
        <ele>124.15</ele>
        <time>2014-07-20T09:07:06Z</time>
      </trkpt>
      <trkpt lat="43.23449" lon="2.25325">
        <ele>124.63</ele>
        <time>2014-07-20T09:07:21Z</time>
      </trkpt>
      <trkpt lat="43.23447" lon="2.25324">
        <ele>125.11</ele>
        <time>2014-07-20T09:07:23Z</time>
      </trkpt>
      <trkpt lat="43.23444" lon="2.25324">
        <ele>125.11</ele>
        <time>2014-07-20T09:07:26Z</time>
      </trkpt>
      <trkpt lat="43.23441" lon="2.25322">
        <ele>125.11</ele>
        <time>2014-07-20T09:07:28Z</time>
      </trkpt>
      <trkpt lat="43.23428" lon="2.25317">
        <ele>126.07</ele>
        <time>2014-07-20T09:07:40Z</time>
      </trkpt>
      <trkpt lat="43.23425" lon="2.25315">
        <ele>126.07</ele>
        <time>2014-07-20T09:07:50Z</time>
      </trkpt>
      <trkpt lat="43.23417" lon="2.25314">
        <ele>126.55</ele>
        <time>2014-07-20T09:08:08Z</time>
      </trkpt>
      <trkpt lat="43.23405" lon="2.25313">
        <ele>126.07</ele>
        <time>2014-07-20T09:08:21Z</time>
      </trkpt>
      <trkpt lat="43.23381" lon="2.25317">
        <ele>125.59</ele>
        <time>2014-07-20T09:08:43Z</time>
      </trkpt>
      <trkpt lat="43.23365" lon="2.25322">
        <ele>125.11</ele>
        <time>2014-07-20T09:08:58Z</time>
      </trkpt>
      <trkpt lat="43.23346" lon="2.25333">
        <ele>126.55</ele>
        <time>2014-07-20T09:09:17Z</time>
      </trkpt>
      <trkpt lat="43.23334" lon="2.25341">
        <ele>126.55</ele>
        <time>2014-07-20T09:09:31Z</time>
      </trkpt>
      <trkpt lat="43.23331" lon="2.25342">
        <ele>126.55</ele>
        <time>2014-07-20T09:09:34Z</time>
      </trkpt>
      <trkpt lat="43.23328" lon="2.25346">
        <ele>126.55</ele>
        <time>2014-07-20T09:09:37Z</time>
      </trkpt>
      <trkpt lat="43.23315" lon="2.25358">
        <ele>126.07</ele>
        <time>2014-07-20T09:09:52Z</time>
      </trkpt>
      <trkpt lat="43.23304" lon="2.25368">
        <ele>125.59</ele>
        <time>2014-07-20T09:10:04Z</time>
      </trkpt>
      <trkpt lat="43.23297" lon="2.25376">
        <ele>126.55</ele>
        <time>2014-07-20T09:10:12Z</time>
      </trkpt>
      <trkpt lat="43.23293" lon="2.25379">
        <ele>126.55</ele>
        <time>2014-07-20T09:10:15Z</time>
      </trkpt>
      <trkpt lat="43.23278" lon="2.25391">
        <ele>126.07</ele>
        <time>2014-07-20T09:10:30Z</time>
      </trkpt>
      <trkpt lat="43.23265" lon="2.25396">
        <ele>127.03</ele>
        <time>2014-07-20T09:10:45Z</time>
      </trkpt>
      <trkpt lat="43.23264" lon="2.25396">
        <ele>127.03</ele>
        <time>2014-07-20T09:10:46Z</time>
      </trkpt>
      <trkpt lat="43.23262" lon="2.25396">
        <ele>127.03</ele>
        <time>2014-07-20T09:10:48Z</time>
      </trkpt>
      <trkpt lat="43.23258" lon="2.25398">
        <ele>127.03</ele>
        <time>2014-07-20T09:10:52Z</time>
      </trkpt>
      <trkpt lat="43.23246" lon="2.25397">
        <ele>128.47</ele>
        <time>2014-07-20T09:11:03Z</time>
      </trkpt>
      <trkpt lat="43.23243" lon="2.25398">
        <ele>129.43</ele>
        <time>2014-07-20T09:11:06Z</time>
      </trkpt>
      <trkpt lat="43.23241" lon="2.25397">
        <ele>129.43</ele>
        <time>2014-07-20T09:11:08Z</time>
      </trkpt>
      <trkpt lat="43.2323" lon="2.25398">
        <ele>130.4</ele>
        <time>2014-07-20T09:11:22Z</time>
      </trkpt>
      <trkpt lat="43.2322" lon="2.25398">
        <ele>129.92</ele>
        <time>2014-07-20T09:11:34Z</time>
      </trkpt>
      <trkpt lat="43.23219" lon="2.25398">
        <ele>129.92</ele>
        <time>2014-07-20T09:11:35Z</time>
      </trkpt>
      <trkpt lat="43.23216" lon="2.25398">
        <ele>129.43</ele>
        <time>2014-07-20T09:11:38Z</time>
      </trkpt>
      <trkpt lat="43.23204" lon="2.25401">
        <ele>129.92</ele>
        <time>2014-07-20T09:11:50Z</time>
      </trkpt>
      <trkpt lat="43.23189" lon="2.25402">
        <ele>128.47</ele>
        <time>2014-07-20T09:12:05Z</time>
      </trkpt>
      <trkpt lat="43.23188" lon="2.25401">
        <ele>128.47</ele>
        <time>2014-07-20T09:12:06Z</time>
      </trkpt>
      <trkpt lat="43.23182" lon="2.25401">
        <ele>129.43</ele>
        <time>2014-07-20T09:12:11Z</time>
      </trkpt>
      <trkpt lat="43.23179" lon="2.254">
        <ele>129.92</ele>
        <time>2014-07-20T09:12:26Z</time>
      </trkpt>
      <trkpt lat="43.23175" lon="2.25401">
        <ele>129.92</ele>
        <time>2014-07-20T09:12:32Z</time>
      </trkpt>
      <trkpt lat="43.23168" lon="2.25402">
        <ele>130.88</ele>
        <time>2014-07-20T09:12:38Z</time>
      </trkpt>
      <trkpt lat="43.23165" lon="2.25401">
        <ele>130.88</ele>
        <time>2014-07-20T09:12:41Z</time>
      </trkpt>
      <trkpt lat="43.23158" lon="2.25401">
        <ele>131.36</ele>
        <time>2014-07-20T09:12:47Z</time>
      </trkpt>
      <trkpt lat="43.23153" lon="2.25401">
        <ele>130.88</ele>
        <time>2014-07-20T09:12:51Z</time>
      </trkpt>
      <trkpt lat="43.23143" lon="2.25399">
        <ele>131.84</ele>
        <time>2014-07-20T09:13:00Z</time>
      </trkpt>
      <trkpt lat="43.23122" lon="2.25398">
        <ele>131.84</ele>
        <time>2014-07-20T09:13:19Z</time>
      </trkpt>
      <trkpt lat="43.23105" lon="2.25397">
        <ele>133.76</ele>
        <time>2014-07-20T09:13:33Z</time>
      </trkpt>
      <trkpt lat="43.23082" lon="2.25395">
        <ele>134.72</ele>
        <time>2014-07-20T09:13:51Z</time>
      </trkpt>
      <trkpt lat="43.23066" lon="2.25392">
        <ele>134.72</ele>
        <time>2014-07-20T09:14:05Z</time>
      </trkpt>
      <trkpt lat="43.23063" lon="2.25393">
        <ele>134.72</ele>
        <time>2014-07-20T09:14:08Z</time>
      </trkpt>
      <trkpt lat="43.23043" lon="2.25392">
        <ele>137.13</ele>
        <time>2014-07-20T09:14:26Z</time>
      </trkpt>
      <trkpt lat="43.23042" lon="2.25394">
        <ele>134.24</ele>
        <time>2014-07-20T09:14:42Z</time>
      </trkpt>
      <trkpt lat="43.23041" lon="2.25394">
        <ele>132.32</ele>
        <time>2014-07-20T09:15:03Z</time>
      </trkpt>
      <trkpt lat="43.23024" lon="2.25393">
        <ele>134.24</ele>
        <time>2014-07-20T09:15:17Z</time>
      </trkpt>
      <trkpt lat="43.23011" lon="2.25391">
        <ele>135.68</ele>
        <time>2014-07-20T09:15:27Z</time>
      </trkpt>
      <trkpt lat="43.22997" lon="2.2539">
        <ele>135.68</ele>
        <time>2014-07-20T09:15:40Z</time>
      </trkpt>
      <trkpt lat="43.22983" lon="2.25388">
        <ele>135.2</ele>
        <time>2014-07-20T09:15:53Z</time>
      </trkpt>
      <trkpt lat="43.22979" lon="2.25387">
        <ele>135.2</ele>
        <time>2014-07-20T09:15:56Z</time>
      </trkpt>
      <trkpt lat="43.22977" lon="2.25387">
        <ele>135.2</ele>
        <time>2014-07-20T09:15:58Z</time>
      </trkpt>
      <trkpt lat="43.22974" lon="2.25385">
        <ele>135.68</ele>
        <time>2014-07-20T09:16:02Z</time>
      </trkpt>
      <trkpt lat="43.22966" lon="2.25383">
        <ele>135.68</ele>
        <time>2014-07-20T09:16:10Z</time>
      </trkpt>
      <trkpt lat="43.22962" lon="2.25379">
        <ele>136.64</ele>
        <time>2014-07-20T09:16:14Z</time>
      </trkpt>
      <trkpt lat="43.22954" lon="2.25379">
        <ele>137.13</ele>
        <time>2014-07-20T09:16:22Z</time>
      </trkpt>
      <trkpt lat="43.22949" lon="2.25378">
        <ele>137.13</ele>
        <time>2014-07-20T09:16:26Z</time>
      </trkpt>
      <trkpt lat="43.22944" lon="2.25376">
        <ele>136.16</ele>
        <time>2014-07-20T09:16:30Z</time>
      </trkpt>
      <trkpt lat="43.22935" lon="2.25375">
        <ele>135.2</ele>
        <time>2014-07-20T09:16:39Z</time>
      </trkpt>
      <trkpt lat="43.22928" lon="2.25375">
        <ele>136.64</ele>
        <time>2014-07-20T09:16:44Z</time>
      </trkpt>
      <trkpt lat="43.22919" lon="2.25373">
        <ele>137.61</ele>
        <time>2014-07-20T09:16:52Z</time>
      </trkpt>
      <trkpt lat="43.22904" lon="2.25375">
        <ele>137.13</ele>
        <time>2014-07-20T09:17:06Z</time>
      </trkpt>
      <trkpt lat="43.22896" lon="2.25374">
        <ele>137.13</ele>
        <time>2014-07-20T09:17:12Z</time>
      </trkpt>
      <trkpt lat="43.22878" lon="2.25383">
        <ele>132.32</ele>
        <time>2014-07-20T09:17:32Z</time>
      </trkpt>
      <trkpt lat="43.22873" lon="2.25383">
        <ele>133.76</ele>
        <time>2014-07-20T09:17:36Z</time>
      </trkpt>
      <trkpt lat="43.22863" lon="2.25382">
        <ele>137.61</ele>
        <time>2014-07-20T09:17:45Z</time>
      </trkpt>
      <trkpt lat="43.22858" lon="2.25384">
        <ele>138.09</ele>
        <time>2014-07-20T09:17:50Z</time>
      </trkpt>
      <trkpt lat="43.22842" lon="2.25392">
        <ele>136.16</ele>
        <time>2014-07-20T09:18:06Z</time>
      </trkpt>
      <trkpt lat="43.22826" lon="2.254">
        <ele>140.49</ele>
        <time>2014-07-20T09:18:22Z</time>
      </trkpt>
      <trkpt lat="43.22817" lon="2.25403">
        <ele>142.41</ele>
        <time>2014-07-20T09:18:34Z</time>
      </trkpt>
      <trkpt lat="43.2281" lon="2.25407">
        <ele>143.85</ele>
        <time>2014-07-20T09:18:51Z</time>
      </trkpt>
      <trkpt lat="43.22796" lon="2.25412">
        <ele>144.82</ele>
        <time>2014-07-20T09:19:06Z</time>
      </trkpt>
      <trkpt lat="43.22794" lon="2.25414">
        <ele>145.3</ele>
        <time>2014-07-20T09:19:09Z</time>
      </trkpt>
      <trkpt lat="43.22784" lon="2.2542">
        <ele>144.82</ele>
        <time>2014-07-20T09:19:19Z</time>
      </trkpt>
      <trkpt lat="43.22768" lon="2.25428">
        <ele>143.85</ele>
        <time>2014-07-20T09:19:37Z</time>
      </trkpt>
      <trkpt lat="43.22748" lon="2.2544">
        <ele>144.34</ele>
        <time>2014-07-20T09:20:00Z</time>
      </trkpt>
      <trkpt lat="43.22746" lon="2.2544">
        <ele>144.34</ele>
        <time>2014-07-20T09:20:02Z</time>
      </trkpt>
      <trkpt lat="43.22729" lon="2.25449">
        <ele>148.66</ele>
        <time>2014-07-20T09:20:20Z</time>
      </trkpt>
      <trkpt lat="43.22714" lon="2.25454">
        <ele>151.54</ele>
        <time>2014-07-20T09:20:35Z</time>
      </trkpt>
      <trkpt lat="43.22701" lon="2.25464">
        <ele>153.47</ele>
        <time>2014-07-20T09:20:52Z</time>
      </trkpt>
      <trkpt lat="43.22681" lon="2.25478">
        <ele>154.43</ele>
        <time>2014-07-20T09:21:16Z</time>
      </trkpt>
      <trkpt lat="43.22664" lon="2.25494">
        <ele>152.03</ele>
        <time>2014-07-20T09:21:37Z</time>
      </trkpt>
      <trkpt lat="43.22645" lon="2.25521">
        <ele>148.66</ele>
        <time>2014-07-20T09:22:02Z</time>
      </trkpt>
      <trkpt lat="43.22628" lon="2.25546">
        <ele>152.51</ele>
        <time>2014-07-20T09:22:24Z</time>
      </trkpt>
      <trkpt lat="43.22617" lon="2.25556">
        <ele>156.35</ele>
        <time>2014-07-20T09:22:43Z</time>
      </trkpt>
      <trkpt lat="43.22615" lon="2.25564">
        <ele>154.91</ele>
        <time>2014-07-20T09:22:59Z</time>
      </trkpt>
      <trkpt lat="43.22613" lon="2.25566">
        <ele>156.35</ele>
        <time>2014-07-20T09:23:14Z</time>
      </trkpt>
      <trkpt lat="43.22612" lon="2.25563">
        <ele>156.35</ele>
        <time>2014-07-20T09:23:41Z</time>
      </trkpt>
      <trkpt lat="43.22606" lon="2.25558">
        <ele>161.64</ele>
        <time>2014-07-20T09:24:11Z</time>
      </trkpt>
      <trkpt lat="43.22605" lon="2.25557">
        <ele>164.04</ele>
        <time>2014-07-20T09:24:48Z</time>
      </trkpt>
      <trkpt lat="43.22602" lon="2.25561">
        <ele>164.52</ele>
        <time>2014-07-20T09:25:12Z</time>
      </trkpt>
      <trkpt lat="43.22607" lon="2.25559">
        <ele>166.45</ele>
        <time>2014-07-20T09:25:40Z</time>
      </trkpt>
      <trkpt lat="43.22611" lon="2.25562">
        <ele>159.24</ele>
        <time>2014-07-20T09:25:53Z</time>
      </trkpt>
      <trkpt lat="43.22612" lon="2.25568">
        <ele>153.95</ele>
        <time>2014-07-20T09:26:18Z</time>
      </trkpt>
      <trkpt lat="43.22611" lon="2.25567">
        <ele>153.95</ele>
        <time>2014-07-20T09:26:30Z</time>
      </trkpt>
      <trkpt lat="43.2261" lon="2.25565">
        <ele>154.43</ele>
        <time>2014-07-20T09:26:43Z</time>
      </trkpt>
      <trkpt lat="43.22611" lon="2.25558">
        <ele>153.95</ele>
        <time>2014-07-20T09:26:55Z</time>
      </trkpt>
      <trkpt lat="43.22603" lon="2.25555">
        <ele>149.62</ele>
        <time>2014-07-20T09:27:09Z</time>
      </trkpt>
      <trkpt lat="43.22593" lon="2.25552">
        <ele>142.41</ele>
        <time>2014-07-20T09:27:25Z</time>
      </trkpt>
      <trkpt lat="43.22586" lon="2.25551">
        <ele>136.16</ele>
        <time>2014-07-20T09:27:38Z</time>
      </trkpt>
      <trkpt lat="43.22572" lon="2.25542">
        <ele>138.09</ele>
        <time>2014-07-20T09:27:50Z</time>
      </trkpt>
      <trkpt lat="43.22568" lon="2.25542">
        <ele>140.01</ele>
        <time>2014-07-20T09:28:03Z</time>
      </trkpt>
      <trkpt lat="43.22555" lon="2.25542">
        <ele>140.01</ele>
        <time>2014-07-20T09:28:14Z</time>
      </trkpt>
      <trkpt lat="43.2254" lon="2.25533">
        <ele>138.09</ele>
        <time>2014-07-20T09:28:31Z</time>
      </trkpt>
      <trkpt lat="43.22526" lon="2.25521">
        <ele>136.16</ele>
        <time>2014-07-20T09:28:45Z</time>
      </trkpt>
      <trkpt lat="43.22519" lon="2.25518">
        <ele>141.93</ele>
        <time>2014-07-20T09:28:59Z</time>
      </trkpt>
      <trkpt lat="43.22511" lon="2.25518">
        <ele>145.3</ele>
        <time>2014-07-20T09:29:14Z</time>
      </trkpt>
      <trkpt lat="43.22503" lon="2.25519">
        <ele>144.34</ele>
        <time>2014-07-20T09:29:26Z</time>
      </trkpt>
      <trkpt lat="43.22491" lon="2.25515">
        <ele>144.82</ele>
        <time>2014-07-20T09:29:41Z</time>
      </trkpt>
      <trkpt lat="43.2248" lon="2.255">
        <ele>140.49</ele>
        <time>2014-07-20T09:29:55Z</time>
      </trkpt>
      <trkpt lat="43.22486" lon="2.25475">
        <ele>136.16</ele>
        <time>2014-07-20T09:30:12Z</time>
      </trkpt>
      <trkpt lat="43.2248" lon="2.25463">
        <ele>136.64</ele>
        <time>2014-07-20T09:30:25Z</time>
      </trkpt>
      <trkpt lat="43.22479" lon="2.25463">
        <ele>137.61</ele>
        <time>2014-07-20T09:30:27Z</time>
      </trkpt>
      <trkpt lat="43.22474" lon="2.25451">
        <ele>142.89</ele>
        <time>2014-07-20T09:30:40Z</time>
      </trkpt>
      <trkpt lat="43.22447" lon="2.25433">
        <ele>148.18</ele>
        <time>2014-07-20T09:31:00Z</time>
      </trkpt>
      <trkpt lat="43.22428" lon="2.25423">
        <ele>149.14</ele>
        <time>2014-07-20T09:31:21Z</time>
      </trkpt>
      <trkpt lat="43.22418" lon="2.25402">
        <ele>152.51</ele>
        <time>2014-07-20T09:31:43Z</time>
      </trkpt>
      <trkpt lat="43.22415" lon="2.25398">
        <ele>152.51</ele>
        <time>2014-07-20T09:31:47Z</time>
      </trkpt>
      <trkpt lat="43.22412" lon="2.25398">
        <ele>152.03</ele>
        <time>2014-07-20T09:31:50Z</time>
      </trkpt>
      <trkpt lat="43.22402" lon="2.25392">
        <ele>150.1</ele>
        <time>2014-07-20T09:32:04Z</time>
      </trkpt>
      <trkpt lat="43.22391" lon="2.25385">
        <ele>148.66</ele>
        <time>2014-07-20T09:32:17Z</time>
      </trkpt>
      <trkpt lat="43.2238" lon="2.25375">
        <ele>145.78</ele>
        <time>2014-07-20T09:32:32Z</time>
      </trkpt>
      <trkpt lat="43.22372" lon="2.25365">
        <ele>142.41</ele>
        <time>2014-07-20T09:32:46Z</time>
      </trkpt>
      <trkpt lat="43.22369" lon="2.25362">
        <ele>140.49</ele>
        <time>2014-07-20T09:32:57Z</time>
      </trkpt>
      <trkpt lat="43.22358" lon="2.25348">
        <ele>140.01</ele>
        <time>2014-07-20T09:33:14Z</time>
      </trkpt>
      <trkpt lat="43.22348" lon="2.25335">
        <ele>138.57</ele>
        <time>2014-07-20T09:33:28Z</time>
      </trkpt>
      <trkpt lat="43.22333" lon="2.2532">
        <ele>136.16</ele>
        <time>2014-07-20T09:33:47Z</time>
      </trkpt>
      <trkpt lat="43.22322" lon="2.25305">
        <ele>135.2</ele>
        <time>2014-07-20T09:33:59Z</time>
      </trkpt>
      <trkpt lat="43.2231" lon="2.25293">
        <ele>135.2</ele>
        <time>2014-07-20T09:34:11Z</time>
      </trkpt>
      <trkpt lat="43.22308" lon="2.25291">
        <ele>135.2</ele>
        <time>2014-07-20T09:34:14Z</time>
      </trkpt>
      <trkpt lat="43.22292" lon="2.25274">
        <ele>135.2</ele>
        <time>2014-07-20T09:34:33Z</time>
      </trkpt>
      <trkpt lat="43.2227" lon="2.25255">
        <ele>133.28</ele>
        <time>2014-07-20T09:34:56Z</time>
      </trkpt>
      <trkpt lat="43.22261" lon="2.25247">
        <ele>134.24</ele>
        <time>2014-07-20T09:35:07Z</time>
      </trkpt>
      <trkpt lat="43.2225" lon="2.25239">
        <ele>133.76</ele>
        <time>2014-07-20T09:35:20Z</time>
      </trkpt>
      <trkpt lat="43.22234" lon="2.25224">
        <ele>136.16</ele>
        <time>2014-07-20T09:35:36Z</time>
      </trkpt>
      <trkpt lat="43.22223" lon="2.25212">
        <ele>133.28</ele>
        <time>2014-07-20T09:35:52Z</time>
      </trkpt>
      <trkpt lat="43.22205" lon="2.25196">
        <ele>131.36</ele>
        <time>2014-07-20T09:36:12Z</time>
      </trkpt>
      <trkpt lat="43.22191" lon="2.25178">
        <ele>130.88</ele>
        <time>2014-07-20T09:36:32Z</time>
      </trkpt>
      <trkpt lat="43.22174" lon="2.25157">
        <ele>135.2</ele>
        <time>2014-07-20T09:36:49Z</time>
      </trkpt>
      <trkpt lat="43.22166" lon="2.25148">
        <ele>137.13</ele>
        <time>2014-07-20T09:37:00Z</time>
      </trkpt>
      <trkpt lat="43.22154" lon="2.25137">
        <ele>137.13</ele>
        <time>2014-07-20T09:37:16Z</time>
      </trkpt>
      <trkpt lat="43.22138" lon="2.25123">
        <ele>137.61</ele>
        <time>2014-07-20T09:37:31Z</time>
      </trkpt>
      <trkpt lat="43.22125" lon="2.25115">
        <ele>139.53</ele>
        <time>2014-07-20T09:37:45Z</time>
      </trkpt>
      <trkpt lat="43.22112" lon="2.25102">
        <ele>140.97</ele>
        <time>2014-07-20T09:37:59Z</time>
      </trkpt>
      <trkpt lat="43.22107" lon="2.25098">
        <ele>140.97</ele>
        <time>2014-07-20T09:38:12Z</time>
      </trkpt>
      <trkpt lat="43.22097" lon="2.25091">
        <ele>143.37</ele>
        <time>2014-07-20T09:38:26Z</time>
      </trkpt>
      <trkpt lat="43.22081" lon="2.25078">
        <ele>142.89</ele>
        <time>2014-07-20T09:38:43Z</time>
      </trkpt>
      <trkpt lat="43.2208" lon="2.25077">
        <ele>142.41</ele>
        <time>2014-07-20T09:38:44Z</time>
      </trkpt>
      <trkpt lat="43.2207" lon="2.25057">
        <ele>140.97</ele>
        <time>2014-07-20T09:39:00Z</time>
      </trkpt>
      <trkpt lat="43.22055" lon="2.25036">
        <ele>139.05</ele>
        <time>2014-07-20T09:39:21Z</time>
      </trkpt>
      <trkpt lat="43.22044" lon="2.25014">
        <ele>139.53</ele>
        <time>2014-07-20T09:39:41Z</time>
      </trkpt>
      <trkpt lat="43.22031" lon="2.24993">
        <ele>140.97</ele>
        <time>2014-07-20T09:40:00Z</time>
      </trkpt>
      <trkpt lat="43.2202" lon="2.24975">
        <ele>141.93</ele>
        <time>2014-07-20T09:40:17Z</time>
      </trkpt>
      <trkpt lat="43.22007" lon="2.24955">
        <ele>141.93</ele>
        <time>2014-07-20T09:40:37Z</time>
      </trkpt>
      <trkpt lat="43.21988" lon="2.24934">
        <ele>147.7</ele>
        <time>2014-07-20T09:40:57Z</time>
      </trkpt>
      <trkpt lat="43.21968" lon="2.24916">
        <ele>150.58</ele>
        <time>2014-07-20T09:41:20Z</time>
      </trkpt>
      <trkpt lat="43.21957" lon="2.24904">
        <ele>152.03</ele>
        <time>2014-07-20T09:41:34Z</time>
      </trkpt>
      <trkpt lat="43.21944" lon="2.24884">
        <ele>157.31</ele>
        <time>2014-07-20T09:41:51Z</time>
      </trkpt>
      <trkpt lat="43.21938" lon="2.24863">
        <ele>156.35</ele>
        <time>2014-07-20T09:42:08Z</time>
      </trkpt>
      <trkpt lat="43.21932" lon="2.24837">
        <ele>154.91</ele>
        <time>2014-07-20T09:42:28Z</time>
      </trkpt>
      <trkpt lat="43.21927" lon="2.24817">
        <ele>154.43</ele>
        <time>2014-07-20T09:42:43Z</time>
      </trkpt>
      <trkpt lat="43.21926" lon="2.24789">
        <ele>155.39</ele>
        <time>2014-07-20T09:43:02Z</time>
      </trkpt>
      <trkpt lat="43.21926" lon="2.24778">
        <ele>154.91</ele>
        <time>2014-07-20T09:43:09Z</time>
      </trkpt>
      <trkpt lat="43.21929" lon="2.24759">
        <ele>154.43</ele>
        <time>2014-07-20T09:43:24Z</time>
      </trkpt>
      <trkpt lat="43.21931" lon="2.24753">
        <ele>154.91</ele>
        <time>2014-07-20T09:43:38Z</time>
      </trkpt>
      <trkpt lat="43.21933" lon="2.24743">
        <ele>155.87</ele>
        <time>2014-07-20T09:43:56Z</time>
      </trkpt>
      <trkpt lat="43.21935" lon="2.24733">
        <ele>155.39</ele>
        <time>2014-07-20T09:44:10Z</time>
      </trkpt>
      <trkpt lat="43.21936" lon="2.2473">
        <ele>154.43</ele>
        <time>2014-07-20T09:44:31Z</time>
      </trkpt>
      <trkpt lat="43.21937" lon="2.24737">
        <ele>152.99</ele>
        <time>2014-07-20T09:44:42Z</time>
      </trkpt>
      <trkpt lat="43.21937" lon="2.24739">
        <ele>153.47</ele>
        <time>2014-07-20T09:45:02Z</time>
      </trkpt>
      <trkpt lat="43.21934" lon="2.2474">
        <ele>156.83</ele>
        <time>2014-07-20T09:45:24Z</time>
      </trkpt>
      <trkpt lat="43.21934" lon="2.24739">
        <ele>157.79</ele>
        <time>2014-07-20T09:45:40Z</time>
      </trkpt>
      <trkpt lat="43.21933" lon="2.24735">
        <ele>158.27</ele>
        <time>2014-07-20T09:46:01Z</time>
      </trkpt>
      <trkpt lat="43.21932" lon="2.24732">
        <ele>159.72</ele>
        <time>2014-07-20T09:46:15Z</time>
      </trkpt>
      <trkpt lat="43.21934" lon="2.24735">
        <ele>159.24</ele>
        <time>2014-07-20T09:46:39Z</time>
      </trkpt>
      <trkpt lat="43.21937" lon="2.24738">
        <ele>158.27</ele>
        <time>2014-07-20T09:46:55Z</time>
      </trkpt>
      <trkpt lat="43.21935" lon="2.24739">
        <ele>156.83</ele>
        <time>2014-07-20T09:47:16Z</time>
      </trkpt>
      <trkpt lat="43.21935" lon="2.24728">
        <ele>153.95</ele>
        <time>2014-07-20T09:47:30Z</time>
      </trkpt>
      <trkpt lat="43.21939" lon="2.24722">
        <ele>153.47</ele>
        <time>2014-07-20T09:47:46Z</time>
      </trkpt>
    </trkseg>
  </trk>
</gpx>